Time;durP1;ratioP1;P1;durP2;ratioP2;P2;SDS_P1;SDS_P2;PMS_P1;PMS_P2;Temp;Humidity;BMP_temperature;BMP_pressure;BME280_temperature;BME280_humidity;BME280_pressure;Samples;Min_cycle;Max_cycle;Signal;HPM_P1;HPM_P2
2024/03/17 00:00:45;;;;;;;16.45;6.40;;;20.80;67.50;;;;;;5106144;28;20072;-55
2024/03/17 00:03:11;;;;;;;17.02;2.70;;;20.50;74.80;;;;;;5094061;28;20069;-55
2024/03/17 00:05:38;;;;;;;17.90;2.50;;;20.00;79.70;;;;;;5108611;28;20083;-51
2024/03/17 00:08:05;;;;;;;11.77;2.53;;;19.60;81.00;;;;;;5108825;28;20200;-50
2024/03/17 00:10:35;;;;;;;16.92;1.52;;;19.40;81.70;;;;;;5109134;28;20075;-53
2024/03/17 00:13:01;;;;;;;11.45;1.30;;;19.40;82.20;;;;;;5109431;28;20107;-53
2024/03/17 00:15:28;;;;;;;10.40;1.40;;;19.00;83.10;;;;;;5109291;28;20068;-54
2024/03/17 00:17:54;;;;;;;10.13;1.58;;;19.00;83.90;;;;;;5111478;28;20064;-51
2024/03/17 00:20:21;;;;;;;5.28;1.15;;;19.00;82.70;;;;;;5092036;28;20069;-52
2024/03/17 00:22:50;;;;;;;10.90;1.55;;;19.00;82.30;;;;;;5094466;28;20551;-52
2024/03/17 00:25:17;;;;;;;4.30;1.05;;;19.00;82.90;;;;;;5107183;28;20086;-54
2024/03/17 00:27:44;;;;;;;9.55;1.42;;;18.50;81.30;;;;;;5064054;28;1244467;-52
2024/03/17 00:30:15;;;;;;;10.68;1.30;;;18.10;84.30;;;;;;5105728;28;20072;-54
2024/03/17 00:32:42;;;;;;;7.72;1.35;;;17.80;87.90;;;;;;5104794;28;20080;-55
2024/03/17 00:35:13;;;;;;;7.38;1.50;;;17.60;90.20;;;;;;5107991;28;20612;-54
2024/03/17 00:37:40;;;;;;;25.88;1.58;;;17.40;91.60;;;;;;5110225;28;20095;-54
2024/03/17 00:40:07;;;;;;;11.32;1.13;;;17.30;92.70;;;;;;5101020;28;20120;-50
2024/03/17 00:42:33;;;;;;;6.97;1.20;;;17.40;93.40;;;;;;5110629;28;20072;-50
2024/03/17 00:45:00;;;;;;;7.25;1.33;;;17.10;95.40;;;;;;5105066;28;21564;-54
2024/03/17 00:47:26;;;;;;;5.97;1.30;;;16.70;98.20;;;;;;5093501;28;20092;-53
2024/03/17 00:49:53;;;;;;;2.58;1.17;;;16.70;99.90;;;;;;5106966;28;20075;-51
2024/03/17 00:52:19;;;;;;;5.50;1.38;;;16.50;99.90;;;;;;5103910;28;20446;-51
2024/03/17 00:54:48;;;;;;;3.00;1.25;;;16.40;99.90;;;;;;5093571;28;20104;-47
2024/03/17 00:57:18;;;;;;;4.03;1.00;;;16.10;99.90;;;;;;5101335;28;20068;-51
2024/03/17 00:59:44;;;;;;;3.53;1.20;;;15.80;99.90;;;;;;5092912;28;20083;-49
2024/03/17 01:02:16;;;;;;;8.45;1.30;;;15.80;99.90;;;;;;5101114;28;20072;-51
2024/03/17 01:04:43;;;;;;;1.55;0.93;;;15.80;99.90;;;;;;5105321;28;20414;-50
2024/03/17 01:07:11;;;;;;;6.20;1.55;;;15.60;99.90;;;;;;5100964;28;20534;-53
2024/03/17 01:09:37;;;;;;;3.85;1.58;;;15.60;99.90;;;;;;5098672;28;20080;-51
2024/03/17 01:12:05;;;;;;;3.15;1.20;;;15.30;99.90;;;;;;5099677;28;20201;-52
2024/03/17 01:14:32;;;;;;;2.30;1.20;;;15.30;99.90;;;;;;5101513;28;20289;-54
2024/03/17 01:17:00;;;;;;;4.10;2.72;;;15.20;99.90;;;;;;5104189;28;20448;-55
2024/03/17 01:19:26;;;;;;;6.60;1.70;;;15.10;99.90;;;;;;5110334;28;20080;-54
2024/03/17 01:21:53;;;;;;;3.33;1.70;;;15.00;99.90;;;;;;5106514;28;20386;-55
2024/03/17 01:24:20;;;;;;;3.97;1.45;;;14.90;99.90;;;;;;5100316;28;20098;-54
2024/03/17 01:26:47;;;;;;;9.25;3.55;;;14.80;99.90;;;;;;5112113;28;20143;-54
2024/03/17 01:29:13;;;;;;;7.20;2.08;;;14.90;99.90;;;;;;5108705;28;20383;-56
2024/03/17 01:31:40;;;;;;;4.50;1.30;;;14.80;99.90;;;;;;5109238;27;20159;-53
2024/03/17 01:34:06;;;;;;;8.45;1.63;;;14.90;99.90;;;;;;5110899;28;20574;-53
2024/03/17 01:36:33;;;;;;;4.03;2.30;;;15.00;99.90;;;;;;5110179;28;20076;-55
2024/03/17 01:39:02;;;;;;;5.05;2.95;;;15.10;99.90;;;;;;5109285;28;20112;-55
2024/03/17 01:41:28;;;;;;;5.32;2.33;;;14.90;99.90;;;;;;5103626;28;20072;-55
2024/03/17 01:43:54;;;;;;;4.95;1.40;;;14.80;99.90;;;;;;5104280;28;20068;-55
2024/03/17 01:46:21;;;;;;;3.78;1.55;;;14.80;99.90;;;;;;5106368;28;20480;-54
2024/03/17 01:48:48;;;;;;;3.55;1.33;;;14.80;99.90;;;;;;5104244;27;20154;-55
2024/03/17 01:51:16;;;;;;;3.10;1.20;;;15.00;99.90;;;;;;5102449;28;20502;-57
2024/03/17 01:53:44;;;;;;;4.18;1.10;;;15.00;99.90;;;;;;5107329;27;20100;-57
2024/03/17 01:56:15;;;;;;;1.20;0.82;;;15.00;99.90;;;;;;5104947;28;20060;-56
2024/03/17 01:58:45;;;;;;;2.88;0.98;;;15.10;99.90;;;;;;5103196;28;20214;-55
2024/03/17 02:01:15;;;;;;;1.40;1.00;;;14.90;99.90;;;;;;5104930;28;20072;-53
2024/03/17 02:03:42;;;;;;;1.77;1.00;;;14.70;99.90;;;;;;5109486;28;20489;-54
2024/03/17 02:06:09;;;;;;;1.27;0.90;;;14.70;99.90;;;;;;5106462;28;20520;-55
2024/03/17 02:08:50;;;;;;;1.50;0.90;;;14.80;99.90;;;;;;5107691;28;20447;-53
2024/03/17 02:11:27;;;;;;;1.88;0.90;;;14.90;99.90;;;;;;5108334;28;20144;-52
2024/03/17 02:13:55;;;;;;;3.97;0.80;;;14.90;99.90;;;;;;5103802;28;20112;-52
2024/03/17 02:16:23;;;;;;;3.05;0.80;;;14.70;99.90;;;;;;5108557;28;20064;-53
2024/03/17 02:18:54;;;;;;;2.22;1.10;;;14.60;99.90;;;;;;5109065;28;20068;-50
2024/03/17 02:21:22;;;;;;;2.63;1.10;;;14.60;99.90;;;;;;5105764;28;20533;-52
2024/03/17 02:23:49;;;;;;;1.98;1.20;;;14.60;99.90;;;;;;5105323;28;20080;-54
2024/03/17 02:26:15;;;;;;;4.35;2.28;;;14.60;99.90;;;;;;5103499;28;20084;-51
2024/03/17 02:28:43;;;;;;;4.80;1.52;;;14.60;99.90;;;;;;5110234;28;20072;-51
2024/03/17 02:31:11;;;;;;;3.47;1.83;;;14.60;99.90;;;;;;5107407;28;20478;-51
2024/03/17 02:33:38;;;;;;;2.63;1.48;;;14.60;99.90;;;;;;5106199;28;20177;-54
2024/03/17 02:36:11;;;;;;;3.22;1.70;;;14.80;99.90;;;;;;5105830;28;20083;-52
2024/03/17 02:41:26;;;;;;;2.30;1.75;;;14.80;99.90;;;;;;5108025;28;20087;-54
2024/03/17 02:43:53;;;;;;;7.13;4.63;;;14.70;99.90;;;;;;5108548;28;20141;-54
2024/03/17 02:46:20;;;;;;;7.13;4.80;;;14.70;99.90;;;;;;5108194;27;20190;-53
2024/03/17 02:48:49;;;;;;;4.40;2.65;;;14.70;99.90;;;;;;5109314;28;20671;-51
2024/03/17 02:51:19;;;;;;;3.25;2.28;;;14.70;99.90;;;;;;5094376;28;20100;-54
2024/03/17 02:53:47;;;;;;;2.72;1.73;;;14.70;99.90;;;;;;5093017;28;20096;-55
2024/03/17 02:56:18;;;;;;;2.75;1.65;;;14.70;99.90;;;;;;5093186;28;20060;-52
2024/03/17 02:58:51;;;;;;;2.10;1.58;;;14.70;99.90;;;;;;5108732;28;20087;-53
2024/03/17 03:01:19;;;;;;;4.28;1.88;;;14.70;99.90;;;;;;5109804;28;20076;-57
2024/03/17 03:03:45;;;;;;;3.88;1.90;;;14.70;99.90;;;;;;5112440;28;20072;-48
2024/03/17 03:06:13;;;;;;;3.10;1.83;;;14.70;99.90;;;;;;5111440;28;20072;-50
2024/03/17 03:08:40;;;;;;;3.60;2.13;;;14.50;99.90;;;;;;5106770;28;20076;-51
2024/03/17 03:11:11;;;;;;;6.70;1.70;;;14.40;99.90;;;;;;5102648;28;20113;-51
2024/03/17 03:13:41;;;;;;;5.25;1.90;;;14.40;99.90;;;;;;5102804;28;20095;-52
2024/03/17 03:16:13;;;;;;;4.53;2.20;;;14.40;99.90;;;;;;5099165;28;20172;-51
2024/03/17 03:18:40;;;;;;;6.15;2.10;;;14.40;99.90;;;;;;5103089;28;20083;-52
2024/03/17 03:21:07;;;;;;;4.35;1.90;;;14.40;99.90;;;;;;5108506;28;20074;-53
2024/03/17 03:23:34;;;;;;;5.25;2.25;;;14.40;99.90;;;;;;5107286;28;20072;-51
2024/03/17 03:26:02;;;;;;;4.25;1.85;;;14.40;99.90;;;;;;5113150;28;20070;-50
2024/03/17 03:28:31;;;;;;;5.40;2.00;;;14.40;99.90;;;;;;5107303;28;20190;-52
2024/03/17 03:30:58;;;;;;;4.50;1.92;;;14.50;99.90;;;;;;5108229;28;20087;-53
2024/03/17 03:33:24;;;;;;;6.28;1.88;;;14.50;99.90;;;;;;5106369;28;20574;-50
2024/03/17 03:35:51;;;;;;;9.05;2.20;;;14.40;99.90;;;;;;5107843;28;20185;-55
2024/03/17 03:38:19;;;;;;;4.65;2.20;;;14.40;99.90;;;;;;5102741;27;20068;-50
2024/03/17 03:40:47;;;;;;;9.70;2.78;;;14.40;99.90;;;;;;5107523;28;20076;-50
2024/03/17 03:43:14;;;;;;;4.65;2.85;;;14.40;99.90;;;;;;5102283;28;20510;-54
2024/03/17 03:45:41;;;;;;;6.68;3.28;;;14.40;99.90;;;;;;5099884;28;20064;-54
2024/03/17 03:48:08;;;;;;;17.30;3.45;;;14.40;99.90;;;;;;5105920;28;20067;-54
2024/03/17 03:50:35;;;;;;;15.48;4.65;;;14.40;99.90;;;;;;5091664;28;20474;-50
2024/03/17 03:53:02;;;;;;;11.25;2.72;;;14.40;99.90;;;;;;5105438;28;20104;-52
2024/03/17 03:55:29;;;;;;;12.73;3.00;;;14.50;99.90;;;;;;5098422;28;20510;-52
2024/03/17 03:57:56;;;;;;;8.38;3.08;;;14.60;99.90;;;;;;5103440;28;20113;-51
2024/03/17 04:00:23;;;;;;;5.50;2.90;;;14.70;99.90;;;;;;5103905;27;20585;-53
2024/03/17 04:02:52;;;;;;;5.55;2.90;;;14.70;99.90;;;;;;5106311;28;20068;-54
2024/03/17 04:05:22;;;;;;;7.57;2.33;;;14.70;99.90;;;;;;5096736;28;20080;-53
2024/03/17 04:07:49;;;;;;;7.55;3.17;;;14.60;99.90;;;;;;5102790;28;20082;-50
2024/03/17 04:10:18;;;;;;;7.55;2.97;;;14.60;99.90;;;;;;5106649;28;20517;-53
2024/03/17 04:12:45;;;;;;;8.98;6.45;;;14.60;99.90;;;;;;5110282;28;20112;-51
2024/03/17 04:15:11;;;;;;;9.15;4.25;;;14.60;99.90;;;;;;5111818;28;20067;-51
2024/03/17 04:17:38;;;;;;;10.20;4.55;;;14.60;99.90;;;;;;5106472;28;20075;-53
2024/03/17 04:20:08;;;;;;;6.13;3.60;;;14.60;99.90;;;;;;5107535;28;20071;-51
2024/03/17 04:22:35;;;;;;;7.78;4.00;;;14.60;99.90;;;;;;5107920;28;20079;-54
2024/03/17 04:25:03;;;;;;;14.05;6.60;;;14.50;99.90;;;;;;5106004;28;20078;-51
2024/03/17 04:27:30;;;;;;;15.45;7.30;;;14.50;99.90;;;;;;5108503;28;20569;-53
2024/03/17 04:29:58;;;;;;;13.05;7.63;;;14.50;99.90;;;;;;5106347;28;20072;-52
2024/03/17 04:32:28;;;;;;;17.02;7.13;;;14.40;99.90;;;;;;5104084;28;20167;-48
2024/03/17 04:34:54;;;;;;;16.92;8.38;;;14.40;99.90;;;;;;5106021;28;20134;-49
2024/03/17 04:37:22;;;;;;;16.98;8.00;;;14.30;99.90;;;;;;5109781;28;20157;-51
2024/03/17 04:39:49;;;;;;;17.95;7.72;;;14.20;99.90;;;;;;5103480;28;20077;-53
2024/03/17 04:42:19;;;;;;;16.83;9.10;;;14.20;99.90;;;;;;5101112;28;20103;-51
2024/03/17 04:44:46;;;;;;;16.42;8.65;;;14.20;99.90;;;;;;5094857;28;20134;-52
2024/03/17 04:47:13;;;;;;;12.80;8.35;;;14.10;99.90;;;;;;5109906;28;20072;-53
2024/03/17 04:49:45;;;;;;;13.68;8.10;;;14.10;99.90;;;;;;5111890;28;20064;-52
2024/03/17 04:52:13;;;;;;;14.95;7.82;;;14.10;99.90;;;;;;5101018;28;20162;-56
2024/03/17 04:54:42;;;;;;;15.77;7.43;;;14.20;99.90;;;;;;5102732;28;20104;-50
2024/03/17 04:57:09;;;;;;;12.20;7.50;;;14.10;99.90;;;;;;5103875;27;20152;-52
2024/03/17 04:59:36;;;;;;;18.13;8.82;;;14.10;99.90;;;;;;5107353;28;20634;-51
2024/03/17 05:02:02;;;;;;;19.77;9.10;;;14.00;99.90;;;;;;5107983;27;20172;-53
2024/03/17 05:04:30;;;;;;;21.27;9.82;;;14.00;99.90;;;;;;5099414;28;20155;-56
2024/03/17 05:06:56;;;;;;;16.83;9.00;;;14.00;99.90;;;;;;5108030;27;20072;-52
2024/03/17 05:09:23;;;;;;;19.70;8.98;;;13.90;99.90;;;;;;5107442;28;20079;-53
2024/03/17 05:11:52;;;;;;;22.20;10.85;;;14.00;99.90;;;;;;5108930;28;20091;-50
2024/03/17 05:14:21;;;;;;;23.90;11.40;;;14.00;99.90;;;;;;5101907;28;20108;-51
2024/03/17 05:16:52;;;;;;;23.90;10.07;;;14.00;99.90;;;;;;5104225;27;20125;-53
2024/03/17 05:19:18;;;;;;;17.42;9.52;;;13.90;99.90;;;;;;5101405;28;20494;-52
2024/03/17 05:21:48;;;;;;;20.98;9.48;;;13.90;99.90;;;;;;5104203;27;20068;-52
2024/03/17 05:24:14;;;;;;;21.63;10.02;;;13.90;99.90;;;;;;5110081;28;20065;-50
2024/03/17 05:26:42;;;;;;;18.15;10.48;;;13.90;99.90;;;;;;5103017;28;20199;-54
2024/03/17 05:29:09;;;;;;;17.27;9.90;;;13.90;99.90;;;;;;5103131;28;20192;-52
2024/03/17 05:31:35;;;;;;;29.77;11.70;;;13.90;99.90;;;;;;5105966;28;20093;-57
2024/03/17 05:34:03;;;;;;;28.17;15.10;;;14.00;99.90;;;;;;5108131;28;20091;-51
2024/03/17 05:36:32;;;;;;;23.98;13.30;;;13.90;99.90;;;;;;5106190;28;20467;-57
2024/03/17 05:38:59;;;;;;;25.33;12.77;;;13.90;99.90;;;;;;5102544;28;20060;-59
2024/03/17 05:41:26;;;;;;;26.27;12.23;;;13.90;99.90;;;;;;5101627;28;20069;-59
2024/03/17 05:43:53;;;;;;;29.60;12.32;;;13.90;99.90;;;;;;5102370;27;20064;-58
2024/03/17 05:46:19;;;;;;;19.85;11.57;;;13.90;99.90;;;;;;5103527;28;20155;-53
2024/03/17 05:48:46;;;;;;;18.92;10.93;;;13.90;99.90;;;;;;5105445;28;20536;-54
2024/03/17 05:51:16;;;;;;;22.25;11.88;;;13.90;99.90;;;;;;5104288;28;20746;-53
2024/03/17 05:53:44;;;;;;;19.60;9.98;;;13.90;99.90;;;;;;5106217;28;20088;-53
2024/03/17 05:56:15;;;;;;;17.35;10.70;;;14.40;99.90;;;;;;5110711;27;20132;-52
2024/03/17 05:58:43;;;;;;;23.92;10.15;;;15.30;99.90;;;;;;5111945;28;20076;-56
2024/03/17 06:01:11;;;;;;;15.07;9.88;;;15.60;99.90;;;;;;5106642;28;20061;-54
2024/03/17 06:03:38;;;;;;;18.13;9.13;;;15.70;99.90;;;;;;5120538;28;20080;-53
2024/03/17 06:06:12;;;;;;;16.95;9.15;;;15.80;99.90;;;;;;5114771;28;20128;-56
2024/03/17 06:08:39;;;;;;;22.23;12.80;;;15.90;99.90;;;;;;5110706;28;20151;-51
2024/03/17 06:11:06;;;;;;;17.88;8.30;;;16.60;99.90;;;;;;5106254;28;20072;-52
2024/03/17 06:13:32;;;;;;;17.50;8.43;;;16.50;99.90;;;;;;5098909;27;20666;-55
2024/03/17 06:16:02;;;;;;;12.88;8.05;;;16.20;99.90;;;;;;5106476;28;20065;-55
2024/03/17 06:18:28;;;;;;;9.15;6.65;;;16.10;99.90;;;;;;5109088;28;20129;-57
2024/03/17 06:21:01;;;;;;;11.95;7.40;;;16.00;99.90;;;;;;5105158;28;20075;-56
2024/03/17 06:23:28;;;;;;;11.70;8.00;;;16.10;99.90;;;;;;5104397;28;20560;-52
2024/03/17 06:25:55;;;;;;;15.60;8.30;;;16.10;99.90;;;;;;5104791;28;20064;-51
2024/03/17 06:28:22;;;;;;;23.63;8.82;;;16.60;99.90;;;;;;5101115;28;20112;-56
2024/03/17 06:30:59;;;;;;;16.75;9.05;;;16.60;99.90;;;;;;5103027;28;20180;-53
2024/03/17 06:33:28;;;;;;;13.00;8.90;;;16.30;99.90;;;;;;5103124;28;20106;-53
2024/03/17 06:35:55;;;;;;;20.95;9.85;;;16.00;99.90;;;;;;5103527;28;20159;-56
2024/03/17 06:38:21;;;;;;;16.60;9.45;;;16.20;99.90;;;;;;5098060;28;20103;-53
2024/03/17 06:40:52;;;;;;;18.48;10.63;;;16.20;99.90;;;;;;5109613;28;20079;-52
2024/03/17 06:43:20;;;;;;;17.55;10.68;;;15.90;99.90;;;;;;5094437;28;20126;-56
2024/03/17 06:46:00;;;;;;;22.52;11.23;;;15.90;99.90;;;;;;5107410;28;20069;-53
2024/03/17 06:48:28;;;;;;;19.45;10.10;;;15.90;99.90;;;;;;5100156;28;20125;-54
2024/03/17 06:50:55;;;;;;;19.15;10.43;;;15.70;99.90;;;;;;5107038;28;20628;-55
2024/03/17 06:53:22;;;;;;;24.70;14.02;;;15.70;99.90;;;;;;5106738;28;20104;-53
2024/03/17 06:55:56;;;;;;;21.38;13.60;;;15.50;99.90;;;;;;5108927;27;20462;-53
2024/03/17 06:58:29;;;;;;;22.52;13.27;;;15.40;99.90;;;;;;5100451;28;20543;-53
2024/03/17 07:01:04;;;;;;;20.83;13.23;;;15.30;99.90;;;;;;5110536;28;20079;-55
2024/03/17 07:03:32;;;;;;;25.20;14.45;;;15.50;99.90;;;;;;5108188;28;20163;-51
2024/03/17 07:06:04;;;;;;;22.90;14.07;;;15.50;99.90;;;;;;5106846;27;20084;-53
2024/03/17 07:08:31;;;;;;;26.83;17.40;;;15.60;99.90;;;;;;5107643;28;20076;-49
2024/03/17 07:11:05;;;;;;;24.10;15.57;;;15.40;99.90;;;;;;5109201;28;20068;-54
2024/03/17 07:13:32;;;;;;;35.20;19.27;;;15.10;99.90;;;;;;5104876;28;20186;-53
2024/03/17 07:16:06;;;;;;;26.15;18.63;;;14.80;99.90;;;;;;5102073;28;20129;-63
2024/03/17 07:18:33;;;;;;;30.35;19.05;;;14.70;99.90;;;;;;5105859;28;20458;-53
2024/03/17 07:21:02;;;;;;;28.33;18.05;;;14.80;99.90;;;;;;5103574;28;20215;-54
2024/03/17 07:23:29;;;;;;;22.60;14.13;;;14.80;99.90;;;;;;5106435;27;20184;-55
2024/03/17 07:25:59;;;;;;;24.50;13.23;;;14.70;99.90;;;;;;5101225;28;20076;-50
2024/03/17 07:28:26;;;;;;;22.83;12.80;;;14.80;99.90;;;;;;5104077;28;20112;-54
2024/03/17 07:30:55;;;;;;;32.08;15.00;;;15.00;99.90;;;;;;5102417;28;20068;-52
2024/03/17 07:33:23;;;;;;;33.60;13.70;;;15.00;99.90;;;;;;5100074;28;20101;-49
2024/03/17 07:35:59;;;;;;;22.38;13.57;;;15.00;99.90;;;;;;5102727;28;20174;-58
2024/03/17 07:38:26;;;;;;;;;;;15.00;99.90;;;;;;5097217;28;20151;-52
2024/03/17 07:41:05;;;;;;;28.08;13.15;;;14.80;99.90;;;;;;5109250;28;20347;-49
2024/03/17 07:43:34;;;;;;;18.65;12.05;;;14.70;99.90;;;;;;5110852;28;20080;-53
2024/03/17 07:46:07;;;;;;;23.60;12.52;;;14.70;99.90;;;;;;5109430;28;20068;-51
2024/03/17 07:48:37;;;;;;;23.05;12.60;;;14.90;99.90;;;;;;5105762;28;20099;-60
2024/03/17 07:51:11;;;;;;;22.58;11.68;;;14.70;99.90;;;;;;5107771;28;20072;-49
2024/03/17 07:53:39;;;;;;;19.27;10.77;;;14.60;99.90;;;;;;5109653;28;20107;-51
2024/03/17 07:56:10;;;;;;;26.75;12.18;;;14.50;99.90;;;;;;5108412;28;20565;-54
2024/03/17 07:58:38;;;;;;;21.67;12.13;;;14.50;99.90;;;;;;5103929;28;20506;-51
2024/03/17 08:01:07;;;;;;;23.60;11.63;;;14.40;99.90;;;;;;5109513;28;20068;-55
2024/03/17 08:03:35;;;;;;;15.65;9.50;;;14.40;99.90;;;;;;5110237;28;20072;-50
2024/03/17 08:06:04;;;;;;;16.40;7.65;;;14.30;99.90;;;;;;5096365;28;20068;-52
2024/03/17 08:08:31;;;;;;;13.27;7.13;;;14.10;99.90;;;;;;5108208;28;20072;-51
2024/03/17 08:10:58;;;;;;;13.75;6.97;;;14.10;99.90;;;;;;5107298;28;20518;-54
2024/03/17 08:13:25;;;;;;;14.63;7.15;;;14.10;99.90;;;;;;5108791;28;20099;-51
2024/03/17 08:15:59;;;;;;;20.15;6.82;;;14.20;99.90;;;;;;5105945;28;20068;-52
2024/03/17 08:18:29;;;;;;;13.10;6.57;;;14.30;99.90;;;;;;5109246;28;20084;-51
2024/03/17 08:20:56;;;;;;;11.25;7.03;;;14.40;99.90;;;;;;5106204;28;20441;-52
2024/03/17 08:23:25;;;;;;;14.90;6.93;;;14.40;99.90;;;;;;5102592;28;20422;-52
2024/03/17 08:25:54;;;;;;;14.57;7.13;;;14.30;99.90;;;;;;5115197;27;20225;-53
2024/03/17 08:28:21;;;;;;;14.35;7.70;;;14.30;99.90;;;;;;5113768;28;20554;-51
2024/03/17 08:30:54;;;;;;;14.57;7.47;;;14.20;99.90;;;;;;5114893;28;20456;-54
2024/03/17 08:33:22;;;;;;;23.55;7.82;;;14.20;99.90;;;;;;5115720;28;20100;-53
2024/03/17 08:36:05;;;;;;;14.27;7.88;;;14.10;99.90;;;;;;5115577;28;20104;-53
2024/03/17 08:38:33;;;;;;;14.98;8.60;;;14.10;99.90;;;;;;5112543;28;20191;-52
2024/03/17 08:41:07;;;;;;;17.13;8.05;;;14.10;99.90;;;;;;5112171;28;20072;-53
2024/03/17 08:43:35;;;;;;;11.32;7.95;;;14.00;99.90;;;;;;5113745;28;20087;-52
2024/03/17 08:46:06;;;;;;;11.63;7.50;;;14.00;99.90;;;;;;5102373;28;20163;-50
2024/03/17 08:48:34;;;;;;;17.75;8.55;;;14.00;99.90;;;;;;5095290;28;20445;-54
2024/03/17 08:51:02;;;;;;;18.08;8.65;;;14.10;99.90;;;;;;5095601;28;20152;-52
2024/03/17 08:53:29;;;;;;;14.43;8.40;;;14.10;99.90;;;;;;5111886;28;20455;-52
2024/03/17 08:55:56;;;;;;;15.68;8.35;;;14.10;99.90;;;;;;5115952;28;20090;-54
2024/03/17 08:58:23;;;;;;;20.70;9.30;;;14.00;99.90;;;;;;5114010;28;20068;-53
2024/03/17 09:00:50;;;;;;;13.85;8.40;;;13.90;99.90;;;;;;5112631;28;20068;-50
2024/03/17 09:03:17;;;;;;;17.83;9.80;;;13.80;99.90;;;;;;5112147;28;20173;-54
2024/03/17 09:05:46;;;;;;;20.63;8.77;;;13.70;99.90;;;;;;5115149;28;20074;-55
2024/03/17 09:08:20;;;;;;;15.93;8.00;;;13.80;99.90;;;;;;5114955;28;20103;-50
2024/03/17 09:10:47;;;;;;;19.35;9.80;;;13.80;99.90;;;;;;5112841;28;20087;-53
2024/03/17 09:13:18;;;;;;;13.63;8.50;;;13.70;99.90;;;;;;5115009;28;20096;-52
2024/03/17 09:16:01;;;;;;;15.30;8.02;;;13.70;99.90;;;;;;5111527;27;20537;-52
2024/03/17 09:18:32;;;;;;;11.75;8.18;;;13.70;99.90;;;;;;5101840;28;20069;-53
2024/03/17 09:21:07;;;;;;;13.80;8.43;;;13.70;99.90;;;;;;5110547;28;20115;-51
2024/03/17 09:23:35;;;;;;;14.40;9.07;;;13.70;99.90;;;;;;5094390;28;20111;-51
2024/03/17 09:26:04;;;;;;;22.17;10.80;;;13.70;99.90;;;;;;5094623;28;20106;-52
2024/03/17 09:28:31;;;;;;;23.83;18.42;;;13.50;99.90;;;;;;5098237;28;20217;-53
2024/03/17 09:30:59;;;;;;;39.90;27.67;;;13.50;99.90;;;;;;5114521;28;20098;-53
2024/03/17 09:33:29;;;;;;;48.35;34.45;;;13.40;99.90;;;;;;5114618;28;20091;-54
2024/03/17 09:36:05;;;;;;;50.65;32.78;;;13.30;99.90;;;;;;5093439;28;20068;-54
2024/03/17 09:38:33;;;;;;;50.90;31.17;;;13.40;99.90;;;;;;5094237;28;20064;-54
2024/03/17 09:41:01;;;;;;;37.55;28.30;;;13.30;99.90;;;;;;5094033;28;20498;-54
2024/03/17 09:43:35;;;;;;;50.72;27.77;;;13.20;99.90;;;;;;5094370;28;20109;-53
2024/03/17 09:46:05;;;;;;;39.60;24.63;;;13.20;99.90;;;;;;5093790;28;20465;-53
2024/03/17 09:48:33;;;;;;;25.90;20.75;;;13.20;99.90;;;;;;5093936;28;20363;-50
2024/03/17 09:51:03;;;;;;;29.92;19.33;;;13.10;99.90;;;;;;5098034;28;20535;-52
2024/03/17 09:53:31;;;;;;;28.25;18.42;;;13.30;99.90;;;;;;5114441;28;20097;-50
2024/03/17 09:56:11;;;;;;;26.05;16.80;;;13.30;99.90;;;;;;5097354;28;20185;-50
2024/03/17 09:58:38;;;;;;;24.45;16.98;;;13.20;99.90;;;;;;5095579;28;20101;-52
2024/03/17 10:01:05;;;;;;;21.75;15.65;;;13.10;99.90;;;;;;5114392;28;20103;-54
2024/03/17 10:04:10;;;;;;;22.95;14.80;;;13.10;99.90;;;;;;5113963;28;20514;-55
2024/03/17 10:06:46;;;;;;;29.80;15.90;;;13.20;99.90;;;;;;5114160;28;20067;-51
2024/03/17 10:09:23;;;;;;;27.38;15.45;;;13.20;99.90;;;;;;5112117;28;20509;-51
2024/03/17 10:11:50;;;;;;;26.80;16.98;;;13.30;99.90;;;;;;5106481;28;20084;-53
2024/03/17 10:14:18;;;;;;;27.48;18.58;;;13.30;99.90;;;;;;5110590;28;20096;-51
2024/03/17 10:16:45;;;;;;;28.23;18.98;;;13.10;99.90;;;;;;5104701;28;20118;-51
2024/03/17 10:19:14;;;;;;;27.23;18.60;;;13.00;99.90;;;;;;5109157;28;20076;-52
2024/03/17 10:21:47;;;;;;;27.38;18.02;;;13.10;99.90;;;;;;5093467;28;20088;-51
2024/03/17 10:24:23;;;;;;;27.40;17.98;;;13.10;99.90;;;;;;5090943;28;20068;-52
2024/03/17 10:26:55;;;;;;;25.52;18.33;;;12.90;99.90;;;;;;5093232;28;20199;-54
2024/03/17 10:29:26;;;;;;;29.42;16.55;;;12.90;99.90;;;;;;5108614;28;20154;-51
2024/03/17 10:31:55;;;;;;;26.13;17.70;;;12.80;99.90;;;;;;5113849;28;20100;-54
2024/03/17 10:34:25;;;;;;;25.70;15.93;;;12.80;99.90;;;;;;5113767;28;20194;-53
2024/03/17 10:37:06;;;;;;;26.20;16.63;;;12.80;99.90;;;;;;5106381;27;20068;-56
2024/03/17 10:39:33;;;;;;;29.00;18.48;;;12.80;99.90;;;;;;5093331;28;20088;-54
2024/03/17 10:42:04;;;;;;;24.92;17.08;;;12.70;99.90;;;;;;5094140;28;20065;-50
2024/03/17 10:44:32;;;;;;;22.92;16.95;;;12.70;99.90;;;;;;5108872;28;20113;-50
2024/03/17 10:47:01;;;;;;;26.23;18.48;;;12.70;99.90;;;;;;5098447;28;20151;-52
2024/03/17 10:49:32;;;;;;;29.60;17.95;;;12.60;99.90;;;;;;5111262;28;20072;-52
2024/03/17 10:52:20;;;;;;;24.45;18.30;;;12.60;99.90;;;;;;5113328;28;20511;-53
2024/03/17 10:54:52;;;;;;;26.13;18.33;;;12.60;99.90;;;;;;5110292;28;20191;-54
2024/03/17 10:57:33;;;;;;;27.52;19.40;;;12.60;99.90;;;;;;5105849;28;20163;-53
2024/03/17 11:00:04;;;;;;;30.38;21.23;;;12.60;99.90;;;;;;5099346;28;20075;-53
2024/03/17 11:02:38;;;;;;;30.55;20.38;;;12.60;99.90;;;;;;5110714;28;20121;-52
2024/03/17 11:05:12;;;;;;;28.40;19.67;;;12.50;99.90;;;;;;5111544;28;20104;-52
2024/03/17 11:07:45;;;;;;;22.98;17.88;;;12.60;99.90;;;;;;5111629;28;20166;-52
2024/03/17 11:10:21;;;;;;;26.45;20.38;;;12.50;99.90;;;;;;5103561;28;20098;-50
2024/03/17 11:12:47;;;;;;;30.30;19.23;;;12.60;99.90;;;;;;5092114;28;20072;-53
2024/03/17 11:15:23;;;;;;;27.30;18.52;;;12.50;99.90;;;;;;5100287;28;20133;-52
2024/03/17 11:17:54;;;;;;;22.88;17.25;;;12.60;99.90;;;;;;5110986;28;20079;-52
2024/03/17 11:20:30;;;;;;;21.38;16.02;;;12.50;99.90;;;;;;5111177;28;20112;-54
2024/03/17 11:22:59;;;;;;;21.65;15.50;;;12.50;99.90;;;;;;5110045;28;20079;-53
2024/03/17 11:25:33;;;;;;;20.80;16.17;;;12.50;99.90;;;;;;5110489;28;20076;-52
2024/03/17 11:28:03;;;;;;;19.30;14.65;;;12.50;99.90;;;;;;5109448;28;20261;-49
2024/03/17 11:30:48;;;;;;;20.48;15.40;;;12.40;99.90;;;;;;5112518;28;20061;-50
2024/03/17 11:33:35;;;;;;;19.98;13.65;;;12.50;99.90;;;;;;5097245;28;20122;-52
2024/03/17 11:36:19;;;;;;;;;;;12.40;99.90;;;;;;5096503;28;20183;-50
2024/03/17 11:39:27;;;;;;;22.35;13.98;;;12.40;99.90;;;;;;5104949;28;19956;-50
2024/03/17 11:41:54;;;;;;;16.00;12.63;;;12.50;99.90;;;;;;5111990;28;20070;-50
2024/03/17 11:46:55;;;;;;;20.40;14.40;;;12.50;99.90;;;;;;5112458;28;20547;-53
2024/03/17 11:49:29;;;;;;;20.27;12.95;;;12.50;99.90;;;;;;5110232;28;20472;-53
2024/03/17 11:52:00;;;;;;;18.35;13.07;;;12.50;99.90;;;;;;5109205;28;20102;-51
2024/03/17 11:54:29;;;;;;;23.05;13.48;;;12.50;99.90;;;;;;5110302;28;20122;-50
2024/03/17 11:57:00;;;;;;;19.83;14.40;;;12.40;99.90;;;;;;5112339;28;20068;-51
2024/03/17 11:59:27;;;;;;;21.95;13.63;;;12.40;99.90;;;;;;5112330;28;20585;-53
2024/03/17 12:01:53;;;;;;;17.73;12.80;;;12.30;99.90;;;;;;5096810;28;20149;-50
2024/03/17 12:04:22;;;;;;;13.80;11.73;;;12.30;99.90;;;;;;5091715;28;20413;-56
2024/03/17 12:06:52;;;;;;;15.85;12.23;;;12.30;99.90;;;;;;5109510;28;20083;-54
2024/03/17 12:09:27;;;;;;;15.05;11.57;;;12.30;99.90;;;;;;5103659;28;20420;-57
2024/03/17 12:12:12;;;;;;;14.30;11.27;;;12.30;99.90;;;;;;5103448;28;20111;-54
2024/03/17 12:14:40;;;;;;;14.13;10.02;;;12.30;99.90;;;;;;5096975;28;20180;-55
2024/03/17 12:17:11;;;;;;;11.82;10.43;;;12.30;99.90;;;;;;5110109;28;20448;-51
2024/03/17 12:19:38;;;;;;;15.57;11.35;;;12.30;99.90;;;;;;5105774;28;20079;-51
2024/03/17 12:22:05;;;;;;;11.32;9.73;;;12.30;99.90;;;;;;5098972;28;20069;-50
2024/03/17 12:24:34;;;;;;;14.63;8.90;;;12.30;99.90;;;;;;5101710;28;20068;-53
2024/03/17 12:27:04;;;;;;;11.68;9.55;;;12.20;99.90;;;;;;5110992;28;20104;-50
2024/03/17 12:29:41;;;;;;;12.27;8.48;;;12.20;99.90;;;;;;5106104;28;20111;-52
2024/03/17 12:32:11;;;;;;;;;;;12.10;99.90;;;;;;5108331;28;20072;-51
2024/03/17 12:34:38;;;;;;;9.43;8.13;;;12.20;99.90;;;;;;5114807;28;20363;-52
2024/03/17 12:37:05;;;;;;;8.32;7.13;;;12.10;99.90;;;;;;5111689;28;20567;-50
2024/03/17 12:39:32;;;;;;;8.25;6.80;;;12.00;99.90;;;;;;5111473;28;20113;-51
2024/03/17 12:42:08;;;;;;;10.52;7.03;;;12.00;99.90;;;;;;5110397;28;20076;-50
2024/03/17 12:44:37;;;;;;;7.97;6.40;;;11.90;99.90;;;;;;5111688;28;20063;-50
2024/03/17 12:47:05;;;;;;;9.15;6.35;;;12.00;99.90;;;;;;5111200;28;20083;-49
2024/03/17 12:49:36;;;;;;;9.52;6.97;;;11.90;99.90;;;;;;5111641;28;20066;-54
2024/03/17 12:52:03;;;;;;;8.38;7.05;;;11.90;99.90;;;;;;5111418;28;20068;-53
2024/03/17 12:54:30;;;;;;;8.20;7.25;;;11.90;99.90;;;;;;5111435;28;20100;-53